Time;durP1;ratioP1;P1;durP2;ratioP2;P2;SDS_P1;SDS_P2;PMS_P1;PMS_P2;Temp;Humidity;BMP_temperature;BMP_pressure;BME280_temperature;BME280_humidity;BME280_pressure;Samples;Min_cycle;Max_cycle;Signal;HPM_P1;HPM_P2
2022/03/26 00:00:33;;;;;;;129.50;69.38;;;;;;;;;;5003326;28;20457;-68
2022/03/26 00:02:59;;;;;;;142.95;78.10;;;7.30;99.90;;;;;;4999963;28;20485;-68
2022/03/26 00:05:25;;;;;;;136.87;74.07;;;;;;;;;;5036189;28;20436;-69
2022/03/26 00:07:51;;;;;;;136.85;73.35;;;;;;;;;;4972304;28;20943;-68
2022/03/26 00:10:17;;;;;;;131.95;71.53;;;;;;;;;;4995092;28;20817;-69
2022/03/26 00:12:43;;;;;;;124.40;69.43;;;;;;;;;;4987276;28;20433;-68
2022/03/26 00:15:10;;;;;;;130.52;70.10;;;;;;;;;;5002623;28;20428;-69
2022/03/26 00:17:37;;;;;;;144.15;78.13;;;;;;;;;;5005021;28;20440;-68
2022/03/26 00:20:04;;;;;;;131.90;73.25;;;;;;;;;;4985494;28;20436;-68
2022/03/26 00:22:30;;;;;;;128.50;70.38;;;;;;;;;;4997639;28;20429;-68
2022/03/26 00:24:56;;;;;;;130.50;69.15;;;;;;;;;;4984971;28;20436;-68
2022/03/26 00:27:22;;;;;;;140.60;75.73;;;;;;;;;;4980713;28;20501;-68
2022/03/26 00:29:48;;;;;;;124.97;69.25;;;6.90;99.90;;;;;;4998228;28;20935;-68
2022/03/26 00:32:14;;;;;;;140.68;74.32;;;;;;;;;;5022075;28;20481;-68
2022/03/26 00:34:40;;;;;;;137.20;72.23;;;;;;;;;;5006291;28;20440;-68
2022/03/26 00:37:06;;;;;;;127.13;70.15;;;;;;;;;;5012410;28;20470;-68
2022/03/26 00:39:32;;;;;;;129.52;69.57;;;;;;;;;;4992133;28;20510;-68
2022/03/26 00:41:58;;;;;;;124.97;69.15;;;;;;;;;;4994293;28;20444;-68
2022/03/26 00:44:25;;;;;;;118.47;64.90;;;;;;;;;;5022194;28;20429;-68
2022/03/26 00:46:51;;;;;;;121.35;65.57;;;;;;;;;;4999836;28;20455;-68
2022/03/26 00:49:18;;;;;;;119.50;65.93;;;;;;;;;;4985300;28;20439;-68
2022/03/26 00:51:44;;;;;;;122.07;65.45;;;;;;;;;;5011099;28;21526;-68
2022/03/26 00:54:12;;;;;;;122.40;66.35;;;;;;;;;;5011919;28;20488;-68
2022/03/26 00:56:38;;;;;;;120.78;65.45;;;;;;;;;;4966565;28;20461;-68
2022/03/26 00:59:05;;;;;;;120.10;65.75;;;;;;;;;;5002514;28;20440;-68
2022/03/26 01:01:31;;;;;;;124.85;67.82;;;;;;;;;;4972811;28;20462;-68
2022/03/26 01:03:58;;;;;;;121.45;64.80;;;;;;;;;;5004822;28;20428;-68
2022/03/26 01:06:24;;;;;;;126.03;66.72;;;;;;;;;;4995924;28;20433;-67
2022/03/26 01:08:50;;;;;;;124.35;67.85;;;;;;;;;;4994438;28;20436;-68
2022/03/26 01:11:17;;;;;;;130.70;69.72;;;6.30;99.90;;;;;;4979167;28;20447;-68
2022/03/26 01:13:43;;;;;;;123.40;67.65;;;;;;;;;;4996658;28;20431;-68
2022/03/26 01:16:09;;;;;;;127.63;68.63;;;;;;;;;;4992265;28;20434;-68
2022/03/26 01:18:36;;;;;;;121.15;66.90;;;;;;;;;;4980226;28;20430;-69
2022/03/26 01:21:03;;;;;;;128.50;69.13;;;;;;;;;;4992806;28;21987;-68
2022/03/26 01:23:30;;;;;;;134.40;72.78;;;;;;;;;;5003974;28;20426;-68
2022/03/26 01:25:56;;;;;;;132.93;69.00;;;;;;;;;;4993274;28;20513;-68
2022/03/26 01:28:22;;;;;;;129.57;68.90;;;;;;;;;;4983076;28;20421;-68
2022/03/26 01:30:48;;;;;;;128.25;68.35;;;;;;;;;;4997082;28;20811;-68
2022/03/26 01:33:14;;;;;;;126.47;70.25;;;;;;;;;;5003592;28;20421;-68
2022/03/26 01:35:40;;;;;;;127.35;68.95;;;;;;;;;;4990113;28;20442;-67
2022/03/26 01:38:07;;;;;;;124.93;67.97;;;;;;;;;;5007995;28;20485;-68
2022/03/26 01:40:36;;;;;;;124.47;67.35;;;;;;;;;;5001464;28;20436;-68
2022/03/26 01:43:02;;;;;;;130.67;68.70;;;;;;;;;;5008222;28;20433;-67
2022/03/26 01:45:29;;;;;;;132.38;70.85;;;;;;;;;;5002745;28;20441;-68
2022/03/26 01:47:56;;;;;;;136.68;71.53;;;;;;;;;;4983898;28;20428;-68
2022/03/26 01:50:22;;;;;;;127.38;69.63;;;;;;;;;;5007347;28;20451;-68
2022/03/26 01:52:48;;;;;;;130.07;69.53;;;;;;;;;;4990551;28;20428;-68
2022/03/26 01:55:14;;;;;;;134.20;70.80;;;;;;;;;;5001686;28;20470;-68
2022/03/26 01:57:41;;;;;;;133.82;69.68;;;;;;;;;;5019211;28;20421;-68
2022/03/26 02:00:08;;;;;;;136.98;70.18;;;;;;;;;;5004401;28;20444;-67
2022/03/26 02:02:34;;;;;;;129.55;69.30;;;;;;;;;;5008475;28;20431;-67
2022/03/26 02:05:01;;;;;;;137.63;70.05;;;;;;;;;;5004717;28;20478;-68
2022/03/26 02:07:27;;;;;;;131.73;68.63;;;;;;;;;;4993656;28;20788;-68
2022/03/26 02:09:53;;;;;;;139.20;73.13;;;;;;;;;;5002924;28;20436;-68
2022/03/26 02:12:26;;;;;;;141.35;72.75;;;;;;;;;;4990517;28;20429;-68
2022/03/26 02:14:53;;;;;;;146.50;74.25;;;;;;;;;;4993204;28;20444;-68
2022/03/26 02:17:20;;;;;;;148.03;76.33;;;;;;;;;;5024214;28;20428;-67
2022/03/26 02:19:59;;;;;;;171.35;86.70;;;;;;;;;;5012097;28;20448;-67
2022/03/26 02:22:26;;;;;;;162.77;84.25;;;;;;;;;;4997993;28;20448;-68
2022/03/26 02:24:53;;;;;;;160.77;81.47;;;;;;;;;;4962825;28;20452;-68
2022/03/26 02:27:19;;;;;;;171.27;85.47;;;;;;;;;;5002470;28;20428;-68
2022/03/26 02:29:45;;;;;;;168.43;85.53;;;;;;;;;;4981302;28;20445;-67
2022/03/26 02:32:11;;;;;;;178.30;86.50;;;;;;;;;;4985533;28;20494;-68
2022/03/26 02:34:38;;;;;;;179.07;89.23;;;;;;;;;;4986738;28;20437;-67
2022/03/26 02:37:04;;;;;;;183.32;89.72;;;;;;;;;;5023015;28;20420;-68
2022/03/26 02:39:30;;;;;;;183.18;90.22;;;;;;;;;;5004415;28;21125;-68
2022/03/26 02:41:56;;;;;;;171.93;87.63;;;;;;;;;;5002697;28;20578;-68
2022/03/26 02:44:23;;;;;;;181.90;91.50;;;;;;;;;;5007292;28;20849;-68
2022/03/26 02:46:49;;;;;;;182.10;90.05;;;;;;;;;;4994682;28;20460;-68
2022/03/26 02:49:16;;;;;;;182.40;88.18;;;;;;;;;;5008156;28;20741;-68
2022/03/26 02:51:42;;;;;;;184.00;89.75;;;;;;;;;;4990083;28;20425;-67
2022/03/26 02:54:18;;;;;;;182.05;87.95;;;;;;;;;;5001762;28;20429;-68
2022/03/26 02:56:51;;;;;;;183.10;88.50;;;;;;;;;;4994040;28;20496;-68
2022/03/26 02:59:18;;;;;;;185.43;89.88;;;;;;;;;;4990149;28;20488;-67
2022/03/26 03:01:44;;;;;;;188.23;88.65;;;;;;;;;;5009576;28;20461;-68
2022/03/26 03:04:11;;;;;;;188.70;89.38;;;;;;;;;;4992433;28;20425;-68
2022/03/26 03:06:37;;;;;;;178.05;85.32;;;;;;;;;;4984143;28;20530;-68
2022/03/26 03:09:08;;;;;;;195.63;87.88;;;;;;;;;;4979160;28;20422;-68
2022/03/26 03:11:34;;;;;;;183.27;85.68;;;;;;;;;;4989423;28;20439;-68
2022/03/26 03:14:01;;;;;;;184.45;89.28;;;;;;;;;;5006046;28;20433;-68
2022/03/26 03:16:27;;;;;;;190.23;89.63;;;5.20;99.90;;;;;;4997816;28;20525;-68
2022/03/26 03:18:53;;;;;;;198.70;93.97;;;;;;;;;;5003109;28;20522;-68
2022/03/26 03:21:19;;;;;;;187.52;89.60;;;;;;;;;;4967046;28;20534;-67
2022/03/26 03:23:46;;;;;;;180.82;86.38;;;;;;;;;;4996187;28;20527;-68
2022/03/26 03:26:12;;;;;;;184.38;88.15;;;;;;;;;;4985318;28;20436;-67
2022/03/26 03:28:38;;;;;;;194.10;90.63;;;;;;;;;;5007520;28;20474;-67
2022/03/26 03:31:04;;;;;;;199.80;93.13;;;;;;;;;;5004235;28;21026;-68
2022/03/26 03:33:30;;;;;;;185.30;85.88;;;;;;;;;;4996577;28;20426;-67
2022/03/26 03:35:56;;;;;;;200.30;93.67;;;;;;;;;;4993517;28;20452;-68
2022/03/26 03:38:24;;;;;;;182.80;85.97;;;;;;;;;;4978660;28;20428;-67
2022/03/26 03:40:50;;;;;;;184.20;87.55;;;;;;;;;;4991371;28;20450;-67
2022/03/26 03:43:16;;;;;;;186.48;85.97;;;4.80;99.90;;;;;;5002752;28;20421;-67
2022/03/26 03:45:42;;;;;;;183.20;88.28;;;;;;;;;;4950110;28;20436;-67
2022/03/26 03:48:09;;;;;;;183.27;83.25;;;;;;;;;;5004758;28;20437;-67
2022/03/26 03:50:35;;;;;;;188.40;86.10;;;;;;;;;;5012803;28;20453;-67
2022/03/26 03:53:01;;;;;;;195.38;88.68;;;;;;;;;;4973224;28;20425;-68
2022/03/26 03:55:28;;;;;;;198.75;89.65;;;;;;;;;;5014645;28;20417;-67
2022/03/26 03:57:54;;;;;;;196.48;90.07;;;;;;;;;;5000439;28;20440;-67
2022/03/26 04:00:20;;;;;;;192.88;88.18;;;;;;;;;;5028334;28;20431;-67
2022/03/26 04:02:47;;;;;;;194.07;88.68;;;;;;;;;;4984255;28;20443;-67
2022/03/26 04:05:13;;;;;;;186.48;87.65;;;;;;;;;;4986238;28;20439;-68
2022/03/26 04:07:40;;;;;;;222.02;96.93;;;;;;;;;;5008106;28;20553;-67
2022/03/26 04:10:07;;;;;;;213.13;94.25;;;;;;;;;;4994332;28;20428;-68
2022/03/26 04:12:41;;;;;;;210.82;94.82;;;;;;;;;;4990237;28;20431;-67
2022/03/26 04:15:08;;;;;;;214.93;93.70;;;;;;;;;;4994082;28;20451;-67
2022/03/26 04:17:34;;;;;;;217.25;94.78;;;;;;;;;;5010258;28;20459;-67
2022/03/26 04:20:01;;;;;;;210.93;94.43;;;;;;;;;;5000536;28;20431;-68
2022/03/26 04:22:27;;;;;;;207.35;93.50;;;;;;;;;;5004047;28;20430;-67
2022/03/26 04:24:54;;;;;;;213.15;94.03;;;;;;;;;;5032322;28;20461;-67
2022/03/26 04:27:20;;;;;;;211.77;92.82;;;;;;;;;;5007934;28;20435;-68
2022/03/26 04:29:46;;;;;;;205.80;94.43;;;;;;;;;;4988761;28;20420;-67
2022/03/26 04:32:12;;;;;;;200.15;89.00;;;;;;;;;;4987112;28;20506;-67
2022/03/26 04:34:38;;;;;;;207.40;91.15;;;;;;;;;;5003796;28;20434;-67
2022/03/26 04:37:04;;;;;;;207.63;90.70;;;;;;;;;;5028620;28;20425;-67
2022/03/26 04:39:31;;;;;;;190.17;88.30;;;;;;;;;;5015567;28;20429;-67
2022/03/26 04:41:57;;;;;;;189.15;86.22;;;;;;;;;;4971271;28;20870;-68
2022/03/26 04:44:23;;;;;;;199.88;89.00;;;;;;;;;;4999217;28;20444;-67
2022/03/26 04:46:49;;;;;;;196.55;91.30;;;;;;;;;;4996301;28;20438;-67
2022/03/26 04:49:15;;;;;;;198.40;92.03;;;;;;;;;;5029101;28;20516;-67
2022/03/26 04:51:41;;;;;;;209.70;93.40;;;;;;;;;;4993202;28;20441;-67
2022/03/26 04:54:07;;;;;;;213.35;93.78;;;;;;;;;;5011344;28;20495;-67
2022/03/26 04:56:33;;;;;;;215.80;95.28;;;;;;;;;;5006746;28;20486;-67
2022/03/26 04:58:59;;;;;;;216.55;96.30;;;;;;;;;;4983196;28;20431;-67
2022/03/26 05:01:25;;;;;;;240.50;101.65;;;;;;;;;;5004933;28;20428;-68
2022/03/26 05:03:51;;;;;;;226.55;99.15;;;4.60;99.90;;;;;;4999455;28;20499;-67
2022/03/26 05:06:17;;;;;;;230.35;98.00;;;;;;;;;;4986232;28;20451;-67
2022/03/26 05:08:44;;;;;;;229.35;99.88;;;;;;;;;;4998988;28;20436;-67
2022/03/26 05:11:10;;;;;;;219.13;95.57;;;;;;;;;;4985927;28;20446;-68
2022/03/26 05:13:36;;;;;;;227.70;99.03;;;;;;;;;;4999028;28;20459;-68
2022/03/26 05:16:03;;;;;;;225.02;95.28;;;;;;;;;;4988690;28;20973;-67
2022/03/26 05:18:29;;;;;;;229.60;97.15;;;;;;;;;;4995530;28;20433;-68
2022/03/26 05:20:58;;;;;;;227.82;100.50;;;;;;;;;;4998161;28;20431;-68
2022/03/26 05:23:24;;;;;;;242.07;100.95;;;;;;;;;;4998063;28;20421;-68
2022/03/26 05:25:50;;;;;;;253.93;103.22;;;;;;;;;;5001489;28;20488;-68
2022/03/26 05:28:17;;;;;;;258.07;105.77;;;;;;;;;;4993643;28;20496;-68
2022/03/26 05:30:43;;;;;;;217.48;95.20;;;;;;;;;;5027501;28;20444;-68
2022/03/26 05:33:09;;;;;;;239.40;100.30;;;;;;;;;;5003823;28;20459;-68
2022/03/26 05:35:35;;;;;;;221.48;95.75;;;;;;;;;;5008294;28;20437;-68
2022/03/26 05:38:02;;;;;;;209.82;92.07;;;;;;;;;;5035695;28;20448;-68
2022/03/26 05:40:28;;;;;;;206.90;93.25;;;;;;;;;;5007751;28;20436;-68
2022/03/26 05:42:54;;;;;;;211.60;92.28;;;;;;;;;;4992790;28;20839;-67
2022/03/26 05:45:21;;;;;;;197.93;89.60;;;;;;;;;;5001561;28;20485;-68
2022/03/26 05:47:51;;;;;;;198.90;90.53;;;;;;;;;;4983168;28;20473;-68
2022/03/26 05:50:18;;;;;;;196.63;89.53;;;;;;;;;;4990096;28;20824;-68
2022/03/26 05:52:43;;;;;;;190.43;90.35;;;4.40;99.90;;;;;;4989461;28;20457;-68
2022/03/26 05:55:10;;;;;;;204.15;90.22;;;;;;;;;;5017250;28;20448;-68
2022/03/26 05:57:36;;;;;;;197.23;90.22;;;;;;;;;;4994624;28;20495;-68
2022/03/26 06:00:03;;;;;;;195.77;91.18;;;;;;;;;;4984551;28;20543;-68
2022/03/26 06:02:30;;;;;;;193.73;89.25;;;;;;;;;;4997475;28;20798;-69
2022/03/26 06:04:56;;;;;;;186.63;88.45;;;;;;;;;;5001062;28;20570;-68
2022/03/26 06:07:24;;;;;;;183.00;87.13;;;;;;;;;;4981608;28;20432;-69
2022/03/26 06:09:50;;;;;;;195.07;89.25;;;;;;;;;;5010862;28;20418;-69
2022/03/26 06:12:16;;;;;;;199.23;89.95;;;;;;;;;;5003450;28;20446;-68
2022/03/26 06:14:42;;;;;;;203.50;92.47;;;;;;;;;;4996082;28;20510;-68
2022/03/26 06:17:09;;;;;;;199.00;92.57;;;;;;;;;;5005456;28;20463;-68
2022/03/26 06:19:34;;;;;;;206.73;93.38;;;5.30;99.90;;;;;;5027227;28;20429;-68
2022/03/26 06:22:00;;;;;;;203.93;91.63;;;;;;;;;;5034846;28;20518;-68
2022/03/26 06:24:26;;;;;;;201.18;93.82;;;;;;;;;;5007402;28;20520;-68
2022/03/26 06:26:52;;;;;;;211.23;95.45;;;;;;;;;;4994806;28;20445;-68
2022/03/26 06:29:19;;;;;;;194.25;90.72;;;;;;;;;;4995783;28;20435;-68
2022/03/26 06:31:45;;;;;;;203.02;94.07;;;;;;;;;;5016607;28;20439;-68
2022/03/26 06:34:11;;;;;;;198.63;93.35;;;;;;;;;;5007333;28;20490;-68
2022/03/26 06:36:38;;;;;;;207.65;97.25;;;6.20;99.90;;;;;;4992684;28;20450;-68
2022/03/26 06:39:09;;;;;;;205.50;94.63;;;;;;;;;;4975042;28;20429;-68
2022/03/26 06:41:38;;;;;;;196.77;91.53;;;;;;;;;;4985876;28;20971;-68
2022/03/26 06:44:06;;;;;;;200.95;91.97;;;;;;;;;;4969187;28;20458;-68
2022/03/26 06:46:32;;;;;;;193.52;91.80;;;;;;;;;;5033179;27;20537;-68
2022/03/26 06:48:58;;;;;;;192.85;87.80;;;;;;;;;;5010757;28;21013;-68
2022/03/26 06:51:24;;;;;;;184.77;88.85;;;;;;;;;;4979557;28;20443;-68
2022/03/26 06:53:50;;;;;;;184.17;90.10;;;;;;;;;;5001938;28;20417;-68
2022/03/26 06:56:16;;;;;;;178.80;86.90;;;;;;;;;;4993199;28;20449;-67
2022/03/26 06:58:44;;;;;;;189.48;89.95;;;;;;;;;;5001170;28;20475;-68
2022/03/26 07:01:10;;;;;;;181.77;86.82;;;6.90;99.90;;;;;;5037559;28;20516;-68
2022/03/26 07:03:36;;;;;;;172.18;83.63;;;;;;;;;;4965946;28;20417;-69
2022/03/26 07:06:04;;;;;;;169.40;84.40;;;;;;;;;;4993984;28;20496;-68
2022/03/26 07:08:30;;;;;;;163.65;80.72;;;;;;;;;;5001592;28;20444;-68
2022/03/26 07:10:56;;;;;;;150.98;75.85;;;;;;;;;;4998541;28;21012;-68
2022/03/26 07:13:22;;;;;;;152.40;76.17;;;;;;;;;;5016453;28;20562;-68
2022/03/26 07:15:48;;;;;;;145.50;73.05;;;;;;;;;;5000914;28;20962;-68
2022/03/26 07:18:15;;;;;;;143.73;72.68;;;7.80;99.90;;;;;;4990857;28;21094;-68
2022/03/26 07:20:41;;;;;;;146.05;72.63;;;7.90;99.90;;;;;;4980208;28;20443;-69
2022/03/26 07:23:09;;;;;;;143.57;72.03;;;;;;;;;;4992824;28;20932;-68
2022/03/26 07:25:36;;;;;;;139.38;70.00;;;;;;;;;;4965233;28;20456;-69
2022/03/26 07:28:02;;;;;;;133.55;69.80;;;;;;;;;;5006158;28;20458;-69
2022/03/26 07:30:28;;;;;;;133.50;67.32;;;8.60;99.90;;;;;;4991805;28;20441;-68
2022/03/26 07:32:54;;;;;;;132.68;66.93;;;;;;;;;;5032293;28;20470;-69
2022/03/26 07:35:20;;;;;;;123.60;63.72;;;;;;;;;;4999586;28;20429;-69
2022/03/26 07:37:46;;;;;;;119.95;62.58;;;;;;;;;;5005369;28;20432;-69
2022/03/26 07:40:13;;;;;;;118.43;63.58;;;;;;;;;;5014318;28;20429;-69
2022/03/26 07:42:39;;;;;;;117.28;62.38;;;;;;;;;;4993355;28;20432;-68
2022/03/26 07:45:06;;;;;;;110.18;59.33;;;;;;;;;;4979924;28;20472;-69
2022/03/26 07:47:35;;;;;;;113.60;61.03;;;9.60;99.90;;;;;;5004286;28;20430;-69
2022/03/26 07:50:03;;;;;;;109.15;59.03;;;;;;;;;;4997380;28;20421;-69
2022/03/26 07:52:29;;;;;;;111.57;56.23;;;;;;;;;;5009659;28;20480;-69
2022/03/26 07:54:55;;;;;;;99.65;53.72;;;;;;;;;;5006400;28;20458;-71
2022/03/26 07:57:20;;;;;;;90.68;51.35;;;9.70;99.90;;;;;;5007916;28;20442;-69
2022/03/26 07:59:47;;;;;;;89.87;49.07;;;;;;;;;;5026365;28;20541;-69
2022/03/26 08:02:13;;;;;;;92.23;51.17;;;;;;;;;;5000715;28;20461;-69
2022/03/26 08:04:38;;;;;;;91.22;50.10;;;10.40;99.90;;;;;;5002896;28;20428;-69
2022/03/26 08:07:06;;;;;;;92.68;50.58;;;;;;;;;;5040970;28;20432;-69
2022/03/26 08:09:32;;;;;;;96.47;50.95;;;;;;;;;;5035644;28;20420;-69
2022/03/26 08:11:59;;;;;;;88.88;50.22;;;;;;;;;;4995550;28;20444;-68
2022/03/26 08:14:25;;;;;;;91.55;50.45;;;10.80;99.90;;;;;;4994583;28;20456;-69
2022/03/26 08:16:52;;;;;;;87.75;49.47;;;;;;;;;;5009952;28;20727;-69
2022/03/26 08:19:18;;;;;;;83.30;48.97;;;;;;;;;;4973406;28;20461;-69
2022/03/26 08:21:44;;;;;;;85.53;47.42;;;;;;;;;;4992566;28;20433;-69
2022/03/26 08:24:12;;;;;;;85.10;47.72;;;;;;;;;;4966874;28;20421;-69
2022/03/26 08:26:38;;;;;;;73.07;44.25;;;;;;;;;;4970913;28;20520;-69
2022/03/26 08:29:05;;;;;;;74.78;42.53;;;;;;;;;;5000424;28;20511;-69
2022/03/26 08:31:31;;;;;;;71.40;41.75;;;;;;;;;;4992288;28;20435;-70
2022/03/26 08:33:58;;;;;;;72.33;41.97;;;;;;;;;;4988129;28;20500;-69
2022/03/26 08:36:24;;;;;;;73.40;42.58;;;;;;;;;;4991684;28;20453;-70
2022/03/26 08:38:51;;;;;;;71.57;43.20;;;;;;;;;;5009329;28;20451;-69
2022/03/26 08:41:19;;;;;;;70.70;42.05;;;;;;;;;;5000402;28;20438;-69
2022/03/26 08:43:45;;;;;;;69.60;42.58;;;;;;;;;;5000799;28;20432;-69
2022/03/26 08:46:11;;;;;;;72.67;41.37;;;;;;;;;;4975465;28;20502;-69
2022/03/26 08:48:37;;;;;;;68.35;39.83;;;;;;;;;;4994745;28;20825;-69
2022/03/26 08:51:03;;;;;;;71.88;39.15;;;;;;;;;;5013586;28;20438;-70
2022/03/26 08:53:30;;;;;;;64.22;37.75;;;;;;;;;;4993861;28;20444;-70
2022/03/26 08:55:56;;;;;;;66.95;39.13;;;;;;;;;;5008319;28;20454;-69
2022/03/26 08:58:22;;;;;;;62.85;38.20;;;;;;;;;;4999278;28;20455;-70
2022/03/26 09:00:51;;;;;;;61.83;36.20;;;;;;;;;;5005933;28;20440;-70
2022/03/26 09:03:19;;;;;;;63.47;37.05;;;;;;;;;;4983632;28;20434;-70
2022/03/26 09:05:46;;;;;;;63.42;37.47;;;;;;;;;;5007608;28;20790;-70
2022/03/26 09:08:12;;;;;;;62.85;36.38;;;;;;;;;;4988191;28;20443;-70
2022/03/26 09:10:38;;;;;;;60.23;36.07;;;;;;;;;;5001169;28;20937;-69
2022/03/26 09:13:04;;;;;;;57.95;35.35;;;;;;;;;;4991235;28;20454;-70
2022/03/26 09:15:30;;;;;;;58.30;35.78;;;;;;;;;;5002103;28;20422;-70
2022/03/26 09:17:57;;;;;;;59.05;36.20;;;;;;;;;;4961106;28;20468;-70
2022/03/26 09:20:23;;;;;;;55.05;35.10;;;;;;;;;;5002718;28;20433;-70
2022/03/26 09:22:49;;;;;;;50.38;30.85;;;;;;;;;;4976683;28;20469;-70
2022/03/26 09:25:17;;;;;;;45.85;30.30;;;;;;;;;;4971661;28;20500;-69
2022/03/26 09:27:43;;;;;;;45.20;28.73;;;;;;;;;;5020717;28;20432;-70
2022/03/26 09:30:10;;;;;;;45.30;28.98;;;;;;;;;;4983398;28;20427;-70
2022/03/26 09:32:36;;;;;;;46.53;28.40;;;;;;;;;;4990993;28;20423;-70
2022/03/26 09:35:02;;;;;;;38.67;26.70;;;;;;;;;;4995357;28;20436;-70
2022/03/26 09:37:28;;;;;;;41.47;27.17;;;;;;;;;;5011241;28;20425;-70
2022/03/26 09:39:55;;;;;;;45.83;29.10;;;;;;;;;;4969172;28;20417;-70
2022/03/26 09:42:23;;;;;;;42.55;27.38;;;;;;;;;;5001709;28;20446;-70
2022/03/26 09:44:50;;;;;;;41.00;26.30;;;;;;;;;;4983762;28;20440;-70
2022/03/26 09:47:17;;;;;;;45.63;27.83;;;;;;;;;;4983293;28;20930;-71
2022/03/26 09:49:44;;;;;;;37.40;24.73;;;;;;;;;;5012064;28;20438;-70
2022/03/26 09:52:10;;;;;;;34.88;22.65;;;;;;;;;;4989072;28;20673;-70
2022/03/26 09:54:36;;;;;;;33.63;21.20;;;;;;;;;;4985490;28;20418;-71
2022/03/26 09:57:04;;;;;;;29.27;20.58;;;;;;;;;;4989782;28;20476;-68
2022/03/26 09:59:30;;;;;;;34.75;21.65;;;;;;;;;;4992191;28;20466;-69
2022/03/26 10:01:56;;;;;;;31.58;22.50;;;;;;;;;;4990113;28;20855;-69
2022/03/26 10:04:23;;;;;;;28.13;19.23;;;;;;;;;;5005453;28;20425;-69
2022/03/26 10:06:50;;;;;;;29.57;19.20;;;;;;;;;;5002287;28;20466;-69
2022/03/26 10:09:35;;;;;;;31.00;19.92;;;;;;;;;;4988279;28;21068;-70
2022/03/26 10:12:01;;;;;;;28.45;18.58;;;;;;;;;;4994262;28;20441;-71
2022/03/26 10:14:44;;;;;;;24.90;18.23;;;;;;;;;;4984473;28;20438;-70
2022/03/26 10:17:11;;;;;;;26.67;18.58;;;;;;;;;;5020383;28;20470;-69
2022/03/26 10:19:41;;;;;;;26.58;18.58;;;;;;;;;;4976002;28;20734;-70
2022/03/26 10:22:12;;;;;;;23.35;16.15;;;;;;;;;;4989679;28;20444;-69
2022/03/26 10:24:43;;;;;;;23.30;15.77;;;;;;;;;;4981278;28;20802;-70
2022/03/26 10:27:12;;;;;;;21.05;14.30;;;;;;;;;;5010502;28;20465;-70
2022/03/26 10:29:52;;;;;;;21.88;15.00;;;;;;;;;;4998535;28;20474;-70
2022/03/26 10:35:28;;;;;;;22.38;14.50;;;15.90;99.90;;;;;;4967865;28;20436;-71
2022/03/26 10:38:02;;;;;;;22.63;14.95;;;;;;;;;;5002156;28;20417;-70
2022/03/26 10:40:38;;;;;;;23.23;14.90;;;;;;;;;;5034977;28;20484;-69
2022/03/26 10:43:06;;;;;;;21.13;14.52;;;;;;;;;;4986304;28;20436;-71
2022/03/26 10:45:33;;;;;;;19.63;14.02;;;;;;;;;;4980155;28;20492;-72
2022/03/26 10:48:00;;;;;;;17.80;13.13;;;;;;;;;;5004122;28;20432;-72
2022/03/26 10:50:27;;;;;;;20.02;13.32;;;;;;;;;;5016078;28;20495;-71
2022/03/26 10:52:55;;;;;;;18.65;12.15;;;16.20;99.90;;;;;;4997508;28;20434;-71
2022/03/26 10:55:22;;;;;;;20.08;12.95;;;16.40;99.90;;;;;;5000395;28;20418;-70
2022/03/26 10:57:48;;;;;;;20.45;13.85;;;;;;;;;;4980599;28;20942;-70
2022/03/26 11:00:15;;;;;;;17.15;11.57;;;;;;;;;;5017164;28;20523;-69
2022/03/26 11:02:42;;;;;;;15.32;10.13;;;16.60;99.90;;;;;;4989692;28;20489;-70
2022/03/26 11:05:09;;;;;;;18.17;10.98;;;;;;;;;;4990490;28;20444;-70
2022/03/26 11:07:36;;;;;;;17.57;10.30;;;;;;;;;;4984386;28;20439;-70
2022/03/26 11:10:05;;;;;;;12.85;8.90;;;16.80;99.90;;;;;;4996787;28;20431;-70
2022/03/26 11:12:32;;;;;;;14.15;9.00;;;16.80;99.90;;;;;;4990172;28;20456;-69
2022/03/26 11:14:58;;;;;;;14.70;9.07;;;;;;;;;;4989205;28;20452;-69
2022/03/26 11:17:27;;;;;;;11.48;8.27;;;;;;;;;;5001129;28;20952;-71
2022/03/26 11:20:06;;;;;;;13.43;8.75;;;;;;;;;;4996992;28;20492;-70
2022/03/26 11:22:32;;;;;;;10.57;7.07;;;;;;;;;;5000170;28;20458;-71
2022/03/26 11:25:01;;;;;;;12.68;7.90;;;;;;;;;;5014277;28;20443;-70
2022/03/26 11:27:46;;;;;;;11.27;7.70;;;;;;;;;;4989390;28;21010;-69
2022/03/26 11:30:12;;;;;;;13.38;8.18;;;;;;;;;;4982507;28;20441;-69
2022/03/26 11:32:45;;;;;;;10.57;7.68;;;;;;;;;;5004416;28;20448;-68
2022/03/26 11:35:15;;;;;;;13.13;7.93;;;;;;;;;;5012435;28;20437;-70
2022/03/26 11:38:00;;;;;;;11.40;6.63;;;;;;;;;;5000530;28;20460;-69
2022/03/26 11:40:45;;;;;;;8.55;6.28;;;;;;;;;;5009361;28;20537;-70
2022/03/26 11:43:12;;;;;;;11.73;6.50;;;;;;;;;;4996523;28;20869;-71
2022/03/26 11:51:22;;;;;;;10.20;6.50;;;;;;;;;;5038401;28;20493;-70
2022/03/26 11:53:55;;;;;;;10.60;6.65;;;16.80;99.90;;;;;;5016402;28;20451;-70
2022/03/26 11:56:26;;;;;;;10.10;5.77;;;;;;;;;;4989394;28;20545;-71
2022/03/26 11:59:13;;;;;;;9.50;6.00;;;;;;;;;;4995965;28;20521;-73
2022/03/26 12:01:40;;;;;;;8.18;4.65;;;;;;;;;;5025701;28;20441;-71
2022/03/26 12:04:10;;;;;;;7.82;4.70;;;;;;;;;;4966270;28;20441;-71
2022/03/26 12:06:44;;;;;;;7.35;4.60;;;;;;;;;;5003777;28;20561;-72
2022/03/26 12:09:30;;;;;;;8.15;5.25;;;;;;;;;;5008798;28;20433;-70
2022/03/26 12:12:22;;;;;;;9.23;5.10;;;17.20;99.90;;;;;;4996599;28;20437;-70
2022/03/26 12:15:07;;;;;;;9.37;5.70;;;;;;;;;;5041046;28;20488;-69
2022/03/26 12:17:47;;;;;;;8.13;4.68;;;;;;;;;;4993187;28;20437;-70
2022/03/26 12:20:19;;;;;;;6.45;4.68;;;;;;;;;;5002363;28;20465;-70
2022/03/26 12:22:48;;;;;;;7.85;4.53;;;;;;;;;;4994055;28;20439;-71
2022/03/26 12:25:16;;;;;;;6.37;4.87;;;;;;;;;;5004540;28;20443;-71
2022/03/26 12:27:45;;;;;;;8.80;5.05;;;;;;;;;;4983658;28;20429;-71
2022/03/26 12:30:13;;;;;;;8.77;5.05;;;;;;;;;;5004870;28;20447;-70
2022/03/26 12:32:42;;;;;;;7.28;4.70;;;;;;;;;;4996908;28;20433;-71
2022/03/26 12:35:09;;;;;;;8.30;4.50;;;16.90;99.90;;;;;;5010646;28;20434;-70
2022/03/26 12:37:36;;;;;;;5.75;4.25;;;;;;;;;;4998256;28;20430;-71
2022/03/26 12:40:05;;;;;;;6.53;4.38;;;;;;;;;;4989851;28;20478;-70
2022/03/26 12:42:32;;;;;;;7.65;4.63;;;;;;;;;;5012952;28;20430;-70
2022/03/26 12:44:59;;;;;;;8.55;5.10;;;;;;;;;;5018711;28;20435;-70
2022/03/26 12:47:26;;;;;;;6.78;5.10;;;;;;;;;;5007214;28;20424;-71
2022/03/26 12:49:57;;;;;;;7.32;4.75;;;;;;;;;;4986118;28;20430;-69
2022/03/26 12:52:27;;;;;;;6.35;4.78;;;;;;;;;;4999334;28;21520;-69
2022/03/26 12:54:56;;;;;;;8.50;4.90;;;;;;;;;;4986907;28;20530;-68
2022/03/26 12:57:23;;;;;;;7.03;4.50;;;;;;;;;;5010362;28;21142;-71
2022/03/26 12:59:53;;;;;;;7.95;5.10;;;17.00;99.90;;;;;;4975444;28;20425;-70
2022/03/26 13:02:20;;;;;;;7.75;5.40;;;;;;;;;;4989393;28;20447;-71
2022/03/26 13:04:55;;;;;;;7.68;5.40;;;;;;;;;;5012459;28;20428;-71
2022/03/26 13:07:22;;;;;;;8.90;5.32;;;;;;;;;;4997104;28;20445;-71
2022/03/26 13:09:54;;;;;;;7.78;5.60;;;;;;;;;;5000029;28;21536;-71
2022/03/26 13:12:28;;;;;;;8.75;5.60;;;;;;;;;;4990619;28;20442;-70
2022/03/26 13:14:55;;;;;;;8.32;5.00;;;17.60;99.90;;;;;;4984279;28;20502;-71
2022/03/26 13:17:21;;;;;;;7.18;4.85;;;;;;;;;;4975848;28;20778;-70
2022/03/26 13:19:47;;;;;;;8.63;4.90;;;17.70;99.90;;;;;;4988001;28;20421;-71
2022/03/26 13:22:17;;;;;;;7.05;4.10;;;;;;;;;;4999978;28;20937;-71
2022/03/26 13:24:53;;;;;;;7.85;4.90;;;;;;;;;;4984944;28;20447;-71
2022/03/26 13:27:26;;;;;;;6.95;4.30;;;;;;;;;;4990041;28;20462;-70
2022/03/26 13:29:52;;;;;;;6.82;4.70;;;;;;;;;;4996546;28;20424;-71
2022/03/26 13:32:18;;;;;;;7.45;4.93;;;;;;;;;;4993279;28;20781;-70
2022/03/26 13:34:47;;;;;;;8.40;5.10;;;;;;;;;;5011948;28;20432;-70
2022/03/26 13:37:14;;;;;;;7.43;5.23;;;;;;;;;;5009954;28;20436;-70
2022/03/26 13:39:43;;;;;;;9.90;5.57;;;;;;;;;;4986002;28;20552;-71
2022/03/26 13:42:17;;;;;;;9.65;5.38;;;;;;;;;;5017015;27;20430;-71
2022/03/26 13:44:44;;;;;;;8.15;4.90;;;;;;;;;;4991768;28;20453;-70
2022/03/26 13:47:18;;;;;;;6.60;4.30;;;;;;;;;;4989247;28;20449;-70
2022/03/26 13:49:44;;;;;;;6.32;3.90;;;;;;;;;;5009248;28;20424;-70
2022/03/26 13:52:26;;;;;;;7.18;4.47;;;16.70;99.90;;;;;;5006112;28;20433;-70
2022/03/26 13:54:52;;;;;;;6.53;3.90;;;;;;;;;;4990271;28;20521;-70
2022/03/26 13:57:28;;;;;;;6.10;4.10;;;;;;;;;;4991236;28;20433;-70
2022/03/26 13:59:54;;;;;;;6.22;3.70;;;;;;;;;;4996609;28;20460;-70
2022/03/26 14:02:23;;;;;;;6.80;3.80;;;;;;;;;;4989129;28;20422;-70
2022/03/26 14:04:49;;;;;;;7.35;3.63;;;16.00;99.90;;;;;;4997813;28;20425;-70
2022/03/26 14:07:15;;;;;;;7.53;3.78;;;;;;;;;;4990042;28;20435;-70
2022/03/26 14:09:52;;;;;;;8.40;4.10;;;;;;;;;;5012656;28;20438;-71
2022/03/26 14:12:18;;;;;;;7.13;4.00;;;;;;;;;;4995046;28;20528;-70
2022/03/26 14:14:44;;;;;;;6.32;3.35;;;;;;;;;;4975687;28;20505;-70